createdAt,value
2023-03-19T00:01:08.636Z,99583.01
2023-03-19T00:03:45.476Z,99586.54
2023-03-19T00:06:13.807Z,99587.70
2023-03-19T00:08:42.139Z,99587.16
2023-03-19T00:11:12.719Z,99583.63
2023-03-19T00:13:41.312Z,99584.61
2023-03-19T00:16:11.942Z,99588.73
2023-03-19T00:18:40.364Z,99588.89
2023-03-19T00:21:08.690Z,99593.56
2023-03-19T00:23:36.889Z,99596.11
2023-03-19T00:26:05.582Z,99595.58
2023-03-19T00:28:37.388Z,99597.30
2023-03-19T00:31:16.004Z,99600.67
2023-03-19T00:33:44.464Z,99607.20
2023-03-19T00:36:16.528Z,99607.41
2023-03-19T00:38:49.148Z,99606.02
2023-03-19T00:41:18.358Z,99607.08
2023-03-19T00:43:49.287Z,99609.58
2023-03-19T00:46:21.398Z,99612.04
2023-03-19T00:48:55.696Z,99612.32
2023-03-19T00:51:24.563Z,99611.52
2023-03-19T00:53:54.925Z,99610.64
2023-03-19T00:56:23.473Z,99613.20
2023-03-19T00:58:56.318Z,99610.51
2023-03-19T01:01:25.347Z,99608.55
2023-03-19T01:03:53.631Z,99608.08
2023-03-19T01:06:21.892Z,99607.89
2023-03-19T01:08:50.283Z,99611.65
2023-03-19T01:36:59.157Z,99619.02
2023-03-19T01:39:32.805Z,99617.83
2023-03-19T01:42:03.201Z,99621.33
2023-03-19T01:44:54.161Z,99619.92
2023-03-19T01:47:36.051Z,99618.91
2023-03-19T01:50:38.041Z,99628.23
2023-03-19T01:53:21.204Z,99623.17
2023-03-19T01:56:04.673Z,99623.09
2023-03-19T01:59:05.222Z,99626.42
2023-03-19T02:02:12.403Z,99628.55
2023-03-19T02:04:49.420Z,99621.57
2023-03-19T02:07:20.985Z,99623.85
2023-03-19T02:09:49.556Z,99627.08
2023-03-19T02:12:18.314Z,99626.20
2023-03-19T02:14:46.921Z,99626.84
2023-03-19T02:17:15.180Z,99630.90
2023-03-19T02:19:58.301Z,99630.36
2023-03-19T02:22:29.579Z,99623.02
2023-03-19T02:25:16.480Z,99618.89
2023-03-19T02:27:46.898Z,99613.37
2023-03-19T02:30:21.225Z,99614.88
2023-03-19T02:32:49.547Z,99613.77
2023-03-19T02:35:17.641Z,99621.63
2023-03-19T02:37:46.068Z,99626.29
2023-03-19T02:40:22.671Z,99636.02
2023-03-19T02:42:51.170Z,99640.52
2023-03-19T02:45:19.822Z,99638.98
2023-03-19T02:47:47.899Z,99635.86
2023-03-19T02:50:16.010Z,99637.08
2023-03-19T02:52:43.964Z,99639.33
2023-03-19T02:55:18.394Z,99632.20
2023-03-19T02:57:46.851Z,99628.61
2023-03-19T03:00:17.198Z,99626.39
2023-03-19T03:02:47.604Z,99623.08
2023-03-19T03:05:16.141Z,99628.42
2023-03-19T03:07:45.094Z,99623.96
2023-03-19T03:10:13.693Z,99621.55
2023-03-19T03:12:42.548Z,99619.48
2023-03-19T03:15:11.904Z,99618.15
2023-03-19T03:17:41.928Z,99618.23
2023-03-19T03:20:12.049Z,99616.89
2023-03-19T03:22:44.206Z,99624.01
2023-03-19T03:25:13.198Z,99629.99
2023-03-19T03:27:42.602Z,99629.40
2023-03-19T03:30:10.989Z,99636.09
2023-03-19T03:32:42.642Z,99637.11
2023-03-19T03:35:10.965Z,99641.05
2023-03-19T03:37:39.899Z,99644.27
2023-03-19T03:40:09.287Z,99643.04
2023-03-19T03:42:37.597Z,99639.96
2023-03-19T03:45:10.063Z,99649.17
2023-03-19T03:47:39.763Z,99657.71
2023-03-19T03:50:11.166Z,99661.34
2023-03-19T03:52:41.362Z,99658.69
2023-03-19T03:55:12.633Z,99655.19
2023-03-19T03:57:41.024Z,99651.27
2023-03-19T04:00:09.793Z,99652.16
2023-03-19T04:02:45.118Z,99658.93
2023-03-19T04:05:16.996Z,99659.15
2023-03-19T04:07:46.121Z,99661.27
2023-03-19T04:10:15.700Z,99661.39
2023-03-19T04:12:46.268Z,99668.80
2023-03-19T04:15:14.669Z,99676.73
2023-03-19T04:17:44.239Z,99676.61
2023-03-19T04:20:14.412Z,99681.33
2023-03-19T04:22:42.612Z,99679.08
2023-03-19T04:25:11.833Z,99677.98
2023-03-19T04:27:40.788Z,99669.10
2023-03-19T04:30:11.582Z,99664.45
2023-03-19T04:32:40.176Z,99662.31
2023-03-19T04:35:11.283Z,99664.42
2023-03-19T04:37:40.441Z,99666.32
2023-03-19T04:40:14.244Z,99674.04
2023-03-19T04:42:44.640Z,99672.66
2023-03-19T04:45:29.046Z,99665.48
2023-03-19T04:47:57.292Z,99663.10
2023-03-19T04:50:30.912Z,99665.23
2023-03-19T04:53:00.450Z,99659.10
2023-03-19T04:55:29.213Z,99660.17
2023-03-19T04:58:07.231Z,99656.87
2023-03-19T05:00:36.762Z,99652.65
2023-03-19T05:03:05.021Z,99651.80
2023-03-19T05:05:34.118Z,99646.61
2023-03-19T05:08:05.586Z,99638.02
2023-03-19T05:10:37.480Z,99639.84
2023-03-19T05:13:09.283Z,99646.00
2023-03-19T05:15:43.589Z,99651.23
2023-03-19T05:18:17.333Z,99646.15
2023-03-19T05:20:48.490Z,99646.70
2023-03-19T05:23:25.291Z,99638.30
2023-03-19T05:26:03.654Z,99637.54
2023-03-19T05:28:54.477Z,99645.09
2023-03-19T05:31:28.486Z,99655.11
2023-03-19T05:34:01.394Z,99656.17
2023-03-19T05:36:33.895Z,99643.00
2023-03-19T05:39:21.043Z,99640.06
2023-03-19T05:41:49.512Z,99639.24
2023-03-19T05:44:23.482Z,99636.02
2023-03-19T05:47:14.974Z,99645.25
2023-03-19T05:49:46.536Z,99645.86
2023-03-19T05:52:17.171Z,99641.16
2023-03-19T05:54:49.351Z,99639.93
2023-03-19T05:57:36.358Z,99641.46
2023-03-19T06:00:11.065Z,99646.20
2023-03-19T06:02:43.191Z,99652.23
2023-03-19T06:05:35.403Z,99658.59
2023-03-19T06:08:19.987Z,99669.87
2023-03-19T06:11:05.559Z,99679.27
2023-03-19T06:13:34.837Z,99674.39
2023-03-19T06:16:10.682Z,99680.46
2023-03-19T06:18:42.726Z,99678.74
2023-03-19T06:21:13.356Z,99669.65
2023-03-19T06:23:43.948Z,99663.47
2023-03-19T06:26:13.666Z,99667.80
2023-03-19T06:28:49.782Z,99667.36
2023-03-19T06:31:18.216Z,99662.45
2023-03-19T06:34:00.143Z,99659.67
2023-03-19T06:36:34.143Z,99659.35
2023-03-19T06:39:04.076Z,99653.59
2023-03-19T06:41:33.444Z,99653.05
2023-03-19T06:44:11.678Z,99649.73
2023-03-19T06:46:40.099Z,99652.37
2023-03-19T06:49:08.099Z,99653.77
2023-03-19T06:51:38.297Z,99663.64
2023-03-19T06:54:06.978Z,99658.30
2023-03-19T06:56:35.510Z,99660.27
2023-03-19T06:59:03.872Z,99662.55
2023-03-19T07:01:32.143Z,99666.11
2023-03-19T07:04:00.229Z,99667.95
2023-03-19T07:06:28.548Z,99665.30
2023-03-19T07:08:57.181Z,99661.26
2023-03-19T07:11:25.566Z,99653.38
2023-03-19T07:14:04.954Z,99658.42
2023-03-19T07:16:38.122Z,99662.14
2023-03-19T07:19:09.039Z,99660.59
2023-03-19T07:21:38.084Z,99657.68
2023-03-19T07:24:06.514Z,99658.34
2023-03-19T07:26:35.030Z,99660.23
2023-03-19T07:29:06.382Z,99658.63
2023-03-19T07:31:39.428Z,99659.28
2023-03-19T07:34:10.266Z,99658.86
2023-03-19T07:36:38.553Z,99661.04
2023-03-19T07:39:09.285Z,99661.13
2023-03-19T07:41:40.186Z,99660.38
2023-03-19T07:44:14.589Z,99659.42
2023-03-19T07:46:43.498Z,99653.13
2023-03-19T07:49:11.964Z,99653.41
2023-03-19T07:51:44.481Z,99653.39
2023-03-19T07:54:12.680Z,99648.52
2023-03-19T07:56:40.814Z,99650.92
2023-03-19T07:59:09.505Z,99648.98
2023-03-19T08:01:40.141Z,99648.04
2023-03-19T08:04:08.350Z,99644.17
2023-03-19T08:06:36.677Z,99639.86
2023-03-19T08:09:04.856Z,99638.23
2023-03-19T08:11:32.919Z,99635.03
2023-03-19T08:14:01.276Z,99633.01
2023-03-19T08:16:29.583Z,99633.09
2023-03-19T08:19:00.413Z,99635.76
2023-03-19T08:21:29.926Z,99634.88
2023-03-19T08:23:58.258Z,99632.81
2023-03-19T08:26:27.637Z,99632.59
2023-03-19T08:28:58.994Z,99627.86
2023-03-19T08:31:31.702Z,99625.27
2023-03-19T08:34:04.078Z,99622.41
2023-03-19T08:36:34.495Z,99616.73
2023-03-19T08:39:04.260Z,99622.21
2023-03-19T08:41:32.456Z,99617.19
2023-03-19T08:44:03.580Z,99616.17
2023-03-19T08:46:34.508Z,99615.14
2023-03-19T08:49:02.666Z,99614.09
2023-03-19T08:51:33.405Z,99614.27
2023-03-19T08:54:04.132Z,99611.59
2023-03-19T08:56:36.632Z,99607.75
2023-03-19T08:59:09.818Z,99607.98
2023-03-19T09:01:40.767Z,99608.54
2023-03-19T09:04:09.340Z,99605.70
2023-03-19T09:06:37.790Z,99612.63
2023-03-19T09:09:09.028Z,99618.06
2023-03-19T09:11:37.400Z,99619.98
2023-03-19T09:14:06.594Z,99618.87
2023-03-19T09:16:37.055Z,99619.45
2023-03-19T09:19:07.629Z,99616.20
2023-03-19T09:21:38.428Z,99616.48
2023-03-19T09:24:09.201Z,99618.27
2023-03-19T09:26:38.016Z,99617.70
2023-03-19T09:29:09.185Z,99616.89
2023-03-19T09:31:37.812Z,99605.64
2023-03-19T09:34:07.876Z,99602.23
2023-03-19T09:36:39.951Z,99596.09
2023-03-19T09:39:08.620Z,99599.85
2023-03-19T09:41:52.919Z,99600.35
2023-03-19T09:44:35.457Z,99603.52
2023-03-19T09:47:24.203Z,99603.15
2023-03-19T09:49:58.007Z,99604.95
2023-03-19T09:52:34.231Z,99598.37
2023-03-19T09:55:16.349Z,99598.64
2023-03-19T09:57:49.617Z,99595.36
2023-03-19T10:00:26.086Z,99594.77
2023-03-19T10:02:58.362Z,99593.45
2023-03-19T10:05:50.260Z,99597.73
2023-03-19T10:08:40.466Z,99601.50
2023-03-19T10:11:25.627Z,99596.83
2023-03-19T10:13:59.670Z,99597.05
2023-03-19T10:16:29.411Z,99599.80
2023-03-19T10:19:02.573Z,99595.96
2023-03-19T10:21:46.601Z,99599.94
2023-03-19T10:24:22.537Z,99600.40
2023-03-19T10:26:58.115Z,99595.29
2023-03-19T10:29:28.856Z,99595.13
2023-03-19T10:32:21.026Z,99595.39
2023-03-19T10:34:53.176Z,99596.90
2023-03-19T10:37:24.207Z,99596.53
2023-03-19T10:39:56.095Z,99590.27
2023-03-19T10:42:46.133Z,99587.40
2023-03-19T10:45:31.301Z,99586.15
2023-03-19T10:48:04.118Z,99586.45
2023-03-19T10:50:38.719Z,99582.25
2023-03-19T10:53:44.984Z,99578.64
2023-03-19T10:56:23.199Z,99571.04
2023-03-19T10:59:40.621Z,99574.20
2023-03-19T11:02:17.415Z,99567.61
2023-03-19T11:04:46.985Z,99566.77
2023-03-19T11:07:22.436Z,99560.27
2023-03-19T11:09:59.782Z,99558.31
2023-03-19T11:12:31.604Z,99557.59
2023-03-19T11:50:56.731Z,99518.39
2023-03-19T11:54:02.269Z,99511.09
2023-03-19T11:57:07.532Z,99510.52
2023-03-19T11:59:48.589Z,99510.38
2023-03-19T12:02:26.071Z,99510.15
2023-03-19T12:05:05.549Z,99501.42
2023-03-19T12:07:50.959Z,99501.43
2023-03-19T12:10:33.603Z,99505.33
2023-03-19T12:13:11.041Z,99503.37
2023-03-19T12:16:16.761Z,99501.61
2023-03-19T12:19:00.172Z,99504.89
2023-03-19T12:21:34.312Z,99498.21
2023-03-19T12:24:24.172Z,99497.58
2023-03-19T12:27:14.536Z,99501.85
2023-03-19T12:29:53.827Z,99501.16
2023-03-19T12:32:42.377Z,99494.21
2023-03-19T12:35:18.464Z,99479.81
2023-03-19T12:38:24.861Z,99482.77
2023-03-19T12:41:24.177Z,99495.30
2023-03-19T12:44:02.452Z,99492.35
2023-03-19T12:46:41.426Z,99493.08
2023-03-19T12:49:14.809Z,99490.03
2023-03-19T12:51:49.600Z,99494.85
2023-03-19T12:54:34.765Z,99493.59
2023-03-19T12:57:10.801Z,99496.39
2023-03-19T12:59:55.701Z,99494.98
2023-03-19T13:02:48.123Z,99490.06
2023-03-19T13:05:26.317Z,99490.27
2023-03-19T13:08:22.053Z,99491.04
2023-03-19T13:45:43.956Z,99476.70
2023-03-19T13:48:25.748Z,99473.98
2023-03-19T13:51:01.240Z,99474.24
2023-03-19T13:53:40.154Z,99473.81
2023-03-19T13:56:28.302Z,99475.10
2023-03-19T13:59:20.045Z,99475.38
2023-03-19T14:01:49.854Z,99471.56
2023-03-19T14:04:32.860Z,99464.33
2023-03-19T14:07:14.722Z,99459.98
2023-03-19T14:09:48.149Z,99457.09
2023-03-19T14:12:15.544Z,99449.92
2023-03-19T14:14:46.348Z,99443.36
2023-03-19T14:17:21.011Z,99442.09
2023-03-19T14:19:52.410Z,99441.80
2023-03-19T14:22:34.743Z,99437.38
2023-03-19T14:25:15.294Z,99438.21
2023-03-19T14:27:50.797Z,99434.52
2023-03-19T14:30:36.727Z,99430.31
2023-03-19T14:33:14.938Z,99427.97
2023-03-19T14:35:49.383Z,99431.05
2023-03-19T14:38:37.155Z,99435.96
2023-03-19T14:41:05.660Z,99428.56
2023-03-19T14:44:10.192Z,99427.72
2023-03-19T14:46:55.891Z,99423.58
2023-03-19T14:49:51.108Z,99429.25
2023-03-19T14:52:43.163Z,99432.54
2023-03-19T14:55:16.922Z,99438.57
2023-03-19T14:57:45.852Z,99436.95
2023-03-19T15:00:20.708Z,99434.35
2023-03-19T15:02:55.469Z,99429.23
2023-03-19T15:05:35.524Z,99432.13
2023-03-19T15:08:11.686Z,99431.37
2023-03-19T15:11:06.397Z,99428.23
2023-03-19T15:13:57.237Z,99430.60
2023-03-19T15:16:45.852Z,99433.08
2023-03-19T15:19:13.187Z,99431.01
2023-03-19T15:21:44.595Z,99432.50
2023-03-19T15:24:16.575Z,99430.98
2023-03-19T15:26:46.118Z,99431.80
2023-03-19T15:29:13.695Z,99434.67
2023-03-19T15:31:52.720Z,99433.23
2023-03-19T15:34:27.616Z,99433.70
2023-03-19T15:37:08.688Z,99435.54
2023-03-19T15:39:41.606Z,99437.54
2023-03-19T15:42:09.065Z,99437.41
2023-03-19T15:44:46.510Z,99441.39
2023-03-19T15:47:23.273Z,99449.20
2023-03-19T15:50:16.744Z,99459.50
2023-03-19T15:52:49.931Z,99458.64
2023-03-19T15:55:24.356Z,99461.65
2023-03-19T15:57:55.365Z,99464.20
2023-03-19T16:00:24.537Z,99461.92
2023-03-19T16:02:52.131Z,99458.08
2023-03-19T16:05:30.259Z,99459.96
2023-03-19T16:08:19.037Z,99460.54
2023-03-19T16:10:48.535Z,99462.20
2023-03-19T16:13:38.303Z,99466.50
2023-03-19T16:16:21.676Z,99469.06
2023-03-19T16:18:58.396Z,99469.94
2023-03-19T16:21:36.772Z,99470.23
2023-03-19T16:24:14.138Z,99469.66
2023-03-19T16:26:53.433Z,99470.20
2023-03-19T16:29:28.122Z,99468.77
2023-03-19T16:32:15.165Z,99470.19
2023-03-19T16:34:45.983Z,99474.08
2023-03-19T16:37:37.229Z,99470.94
2023-03-19T16:40:08.285Z,99466.73
2023-03-19T16:42:36.932Z,99477.59
2023-03-19T16:45:18.685Z,99481.89
2023-03-19T16:47:52.795Z,99482.88
2023-03-19T16:50:22.467Z,99476.95
2023-03-19T16:52:49.996Z,99476.73
2023-03-19T16:55:23.770Z,99476.50
2023-03-19T16:57:56.871Z,99485.70
2023-03-19T17:00:24.806Z,99486.52
2023-03-19T17:02:57.517Z,99486.59
2023-03-19T17:05:30.337Z,99490.11
2023-03-19T17:07:57.396Z,99491.29
2023-03-19T17:10:30.269Z,99497.13
2023-03-19T17:12:59.073Z,99497.70
2023-03-19T17:15:34.764Z,99496.06
2023-03-19T17:18:05.275Z,99496.21
2023-03-19T17:20:37.929Z,99494.93
2023-03-19T17:23:13.278Z,99494.61
2023-03-19T17:25:43.136Z,99488.84
2023-03-19T17:28:09.668Z,99489.66
2023-03-19T17:30:39.242Z,99488.41
2023-03-19T17:33:28.884Z,99491.80
2023-03-19T17:35:59.974Z,99495.39
2023-03-19T17:38:34.526Z,99493.76
2023-03-19T17:41:10.436Z,99497.49
2023-03-19T17:43:39.584Z,99499.05
2023-03-19T17:46:06.277Z,99497.84
2023-03-19T17:48:33.085Z,99495.30
2023-03-19T17:51:01.118Z,99495.17
2023-03-19T17:53:28.294Z,99491.51
2023-03-19T17:59:52.523Z,99489.45
2023-03-19T18:02:28.775Z,99491.13
2023-03-19T18:04:59.729Z,99492.04
2023-03-19T18:07:30.948Z,99487.75
2023-03-19T18:09:57.673Z,99487.95
2023-03-19T18:12:30.914Z,99487.85
2023-03-19T18:14:57.325Z,99489.16
2023-03-19T18:17:29.167Z,99493.94
2023-03-19T18:19:55.999Z,99492.02
2023-03-19T18:22:26.727Z,99502.34
2023-03-19T18:24:56.108Z,99507.52
2023-03-19T18:27:25.401Z,99510.02
2023-03-19T18:29:52.234Z,99512.67
2023-03-19T18:32:29.362Z,99512.80
2023-03-19T18:34:56.452Z,99510.71
2023-03-19T18:37:25.875Z,99513.15
2023-03-19T18:39:55.157Z,99508.97
2023-03-19T18:42:24.038Z,99507.36
2023-03-19T18:44:53.416Z,99502.68
2023-03-19T18:47:23.858Z,99504.44
2023-03-19T18:49:53.578Z,99500.55
2023-03-19T18:52:22.650Z,99503.61
2023-03-19T18:54:54.053Z,99509.40
2023-03-19T18:57:23.731Z,99517.71
2023-03-19T18:59:55.417Z,99524.61
2023-03-19T19:02:32.360Z,99525.67
2023-03-19T19:05:04.911Z,99532.91
2023-03-19T19:07:33.860Z,99529.70
2023-03-19T19:10:07.176Z,99531.46
2023-03-19T19:12:34.952Z,99536.26
2023-03-19T19:15:07.570Z,99539.30
2023-03-19T19:17:38.680Z,99538.30
2023-03-19T19:20:20.507Z,99536.11
2023-03-19T19:22:56.728Z,99537.52
2023-03-19T19:25:28.009Z,99538.08
2023-03-19T19:28:01.026Z,99531.55
2023-03-19T19:30:30.421Z,99538.52
2023-03-19T19:32:57.849Z,99539.15
2023-03-19T19:35:27.234Z,99537.48
2023-03-19T19:37:56.811Z,99545.56
2023-03-19T19:40:30.306Z,99550.05
2023-03-19T19:43:00.632Z,99548.38
2023-03-19T19:45:33.475Z,99560.86
2023-03-19T19:48:02.221Z,99562.60
2023-03-19T19:50:29.128Z,99566.13
2023-03-19T19:52:57.183Z,99563.56
2023-03-19T19:55:25.570Z,99563.59
2023-03-19T19:57:56.499Z,99567.10
2023-03-19T20:00:29.006Z,99565.11
2023-03-19T20:02:59.226Z,99569.48
2023-03-19T20:05:29.212Z,99573.02
2023-03-19T20:08:02.328Z,99571.19
2023-03-19T20:10:32.251Z,99572.23
2023-03-19T20:13:00.727Z,99576.59
2023-03-19T20:15:35.238Z,99577.13
2023-03-19T20:18:06.048Z,99575.71
2023-03-19T20:20:33.136Z,99576.17
2023-03-19T20:23:03.590Z,99580.67
2023-03-19T20:25:32.032Z,99584.52
2023-03-19T20:28:04.401Z,99589.26
2023-03-19T20:30:36.803Z,99585.45
2023-03-19T20:33:06.446Z,99583.42
2023-03-19T20:35:37.494Z,99581.47
2023-03-19T20:38:06.010Z,99588.70
2023-03-19T20:40:46.223Z,99590.75
2023-03-19T20:43:33.896Z,99581.69
2023-03-19T20:46:03.755Z,99568.42
2023-03-19T20:48:33.502Z,99568.29
2023-03-19T20:51:03.457Z,99566.89
2023-03-19T20:53:32.863Z,99567.77
2023-03-19T20:56:03.948Z,99569.42
2023-03-19T20:58:36.126Z,99573.02
2023-03-19T21:01:03.034Z,99571.66
2023-03-19T21:03:32.324Z,99568.05
2023-03-19T21:06:05.333Z,99570.73
2023-03-19T21:08:43.887Z,99563.35
2023-03-19T21:11:17.158Z,99571.69
2023-03-19T21:13:49.037Z,99582.61
2023-03-19T21:16:25.043Z,99585.86
2023-03-19T21:18:53.294Z,99581.25
2023-03-19T21:21:30.603Z,99579.83
2023-03-19T21:24:07.282Z,99571.74
2023-03-19T21:26:38.283Z,99579.63
2023-03-19T21:29:11.657Z,99575.19
2023-03-19T21:31:40.846Z,99576.90
2023-03-19T21:34:15.981Z,99584.00
2023-03-19T21:36:42.420Z,99584.08
2023-03-19T21:39:09.357Z,99586.20
2023-03-19T21:41:36.615Z,99591.27
2023-03-19T21:44:12.851Z,99599.33
2023-03-19T21:46:40.560Z,99593.96
2023-03-19T21:49:11.396Z,99586.24
2023-03-19T21:51:38.697Z,99587.62
2023-03-19T21:54:05.458Z,99588.92
2023-03-19T21:56:39.951Z,99581.40
2023-03-19T21:59:14.139Z,99583.69
2023-03-19T22:01:45.991Z,99581.05
2023-03-19T22:04:12.893Z,99580.63
2023-03-19T22:06:40.320Z,99580.36
2023-03-19T22:09:09.861Z,99579.52
2023-03-19T22:11:37.836Z,99578.64
2023-03-19T22:14:06.674Z,99581.60
2023-03-19T22:16:33.688Z,99582.89
2023-03-19T22:19:01.082Z,99581.34
2023-03-19T22:21:32.716Z,99577.36
2023-03-19T22:23:59.713Z,99582.43
2023-03-19T22:26:34.899Z,99581.46
2023-03-19T22:29:17.663Z,99579.38
2023-03-19T22:31:47.332Z,99577.80
2023-03-19T22:34:16.022Z,99576.77
2023-03-19T22:36:47.324Z,99576.76
2023-03-19T22:39:14.187Z,99574.95
2023-03-19T22:41:47.723Z,99572.16
2023-03-19T22:44:22.422Z,99569.33
2023-03-19T22:46:49.152Z,99577.13
2023-03-19T22:49:19.481Z,99576.33
2023-03-19T22:51:46.723Z,99575.06
2023-03-19T22:54:15.977Z,99574.29
2023-03-19T22:56:42.944Z,99569.94
2023-03-19T22:59:12.128Z,99570.73
2023-03-19T23:01:42.452Z,99568.65
2023-03-19T23:04:24.723Z,99571.05
2023-03-19T23:06:55.684Z,99571.98
2023-03-19T23:09:30.163Z,99569.69
2023-03-19T23:11:58.617Z,99564.80
2023-03-19T23:14:30.207Z,99560.42
2023-03-19T23:17:09.494Z,99559.42
2023-03-19T23:19:39.634Z,99554.75
2023-03-19T23:22:15.189Z,99560.30
2023-03-19T23:24:41.914Z,99561.76
2023-03-19T23:27:23.996Z,99558.14
2023-03-19T23:29:51.339Z,99554.39
2023-03-19T23:32:21.142Z,99548.94
2023-03-19T23:35:00.319Z,99546.02
2023-03-19T23:37:28.230Z,99548.83
2023-03-19T23:39:59.289Z,99547.89
2023-03-19T23:42:29.432Z,99550.14
2023-03-19T23:45:00.646Z,99551.05
2023-03-19T23:47:31.839Z,99552.63
2023-03-19T23:49:58.513Z,99551.77
2023-03-19T23:52:27.396Z,99548.65
2023-03-19T23:54:53.900Z,99551.73
2023-03-19T23:57:25.089Z,99548.34
2023-03-19T23:59:54.338Z,99549.45
